logo tempoitalia

Diretta Meteo Wichita Falls Sheppard, Stati Uniti (USA)lunedì 31 agosto ore 00:52

Mappa
Sereno 29 °C Sereno 24 Ore: T.min 24 T.max 39
Ponente Sud Km/h 18.5 Punto di rugiada: 13 °C Umidità: 37% Visibilità: 10 Km
Il sole sorge alle: 07:07 Il sole tramonta alle: 20:01
31 Agosto 2026 00:52 tempo osservato: Sereno Sereno 29 37 1014 vento: Nord S 18.5
30 Agosto 2026 23:52 tempo osservato: Sereno Sereno 31 33 1013 vento: Nord S 25.9
30 Agosto 2026 22:52 tempo osservato: Sereno Sereno 31 33 1013 vento: Nord S/SE 22.2
30 Agosto 2026 21:52 tempo osservato: Sereno Sereno 32 29 1012 vento: Nord S/SE 22.2
30 Agosto 2026 20:52 tempo osservato: Sereno Sereno 32 29 1011 vento: Nord SE 14.8
30 Agosto 2026 19:52 tempo osservato: Sereno Sereno 36 25 1011 vento: Nord S/SE 24
30 Agosto 2026 18:52 tempo osservato: Sereno Sereno 38 22 1011 vento: Nord S/SE 24
30 Agosto 2026 17:52 tempo osservato: Nuvoloso Nuvoloso 39 21 1011 vento: Nord S 18.5
30 Agosto 2026 16:52 tempo osservato: Poco Nuvoloso Poco Nuvoloso 39 22 1011 vento: Nord S 22.2
30 Agosto 2026 15:52 tempo osservato: Sereno Sereno 39 21 1012 vento: Nord S/SO 20.3
30 Agosto 2026 14:52 tempo osservato: Sereno Sereno 38 25 1013 vento: Nord S 13
30 Agosto 2026 13:52 tempo osservato: Sereno Sereno 39 26 1014 vento: Nord S 25.9
30 Agosto 2026 12:52 tempo osservato: Sereno Sereno 37 32 1015 vento: Nord S/SO 22.2
30 Agosto 2026 11:52 tempo osservato: Sereno Sereno 36 34 1015 vento: Nord S 27.8
30 Agosto 2026 10:52 tempo osservato: Sereno Sereno 34 41 1016 vento: Nord S 25.9
30 Agosto 2026 09:52 tempo osservato: Sereno Sereno 32 46 1016 vento: Nord S/SO 27.8
30 Agosto 2026 08:52 tempo osservato: Sereno Sereno 29 51 1016 vento: Nord S 20.3
30 Agosto 2026 07:52 tempo osservato: Sereno Sereno 26 57 1015 vento: Nord S 16.7
30 Agosto 2026 06:52 tempo osservato: Sereno Sereno 25 61 1015 vento: Nord S 14.8
30 Agosto 2026 05:52 tempo osservato: Sereno Sereno 24 64 1014 vento: Nord S 14.8
30 Agosto 2026 04:52 tempo osservato: Sereno Sereno 26 54 1014 vento: Nord S 16.7
30 Agosto 2026 03:52 tempo osservato: Sereno Sereno 28 48 1014 vento: Nord S 20.3
30 Agosto 2026 02:52 tempo osservato: Sereno Sereno 28 48 1014 vento: Nord S 16.7
30 Agosto 2026 01:52 tempo osservato: Sereno Sereno 29 45 1014 vento: Nord S 16.7